Time;durP1;ratioP1;P1;durP2;ratioP2;P2;SDS_P1;SDS_P2;PMS_P1;PMS_P2;Temp;Humidity;BMP_temperature;BMP_pressure;BME280_temperature;BME280_humidity;BME280_pressure;Samples;Min_cycle;Max_cycle;Signal;HPM_P1;HPM_P2
2024/01/23 00:02:20;;;;;;;1999.90;999.90;;;3.90;99.90;;;;;;5009566;28;20060;-74
2024/01/23 00:04:46;;;;;;;1999.90;999.90;;;3.70;99.90;;;;;;5011746;28;20037;-77
2024/01/23 00:07:12;;;;;;;1999.90;999.90;;;3.70;99.90;;;;;;5008768;28;20580;-74
2024/01/23 00:09:37;;;;;;;1999.90;999.90;;;3.60;99.90;;;;;;5013044;28;20042;-76
2024/01/23 00:12:05;;;;;;;1999.90;999.90;;;3.70;99.90;;;;;;5013794;28;20037;-74
2024/01/23 00:14:32;;;;;;;1999.90;999.90;;;3.70;99.90;;;;;;5012017;28;20053;-74
2024/01/23 00:16:57;;;;;;;1999.90;999.90;;;3.70;99.90;;;;;;5011768;28;20060;-75
2024/01/23 00:19:23;;;;;;;1999.90;999.90;;;3.80;99.90;;;;;;5013648;28;20077;-75
2024/01/23 00:21:49;;;;;;;1999.90;999.90;;;3.70;99.90;;;;;;5009711;28;20114;-74
2024/01/23 00:24:15;;;;;;;1999.90;999.90;;;3.70;99.90;;;;;;5012311;28;20064;-74
2024/01/23 00:26:40;;;;;;;1999.90;999.90;;;3.70;99.90;;;;;;5010470;28;20076;-74
2024/01/23 00:29:07;;;;;;;1999.90;999.90;;;3.60;99.90;;;;;;4997177;28;20128;-74
2024/01/23 00:31:34;;;;;;;1999.90;999.90;;;3.60;99.90;;;;;;5012677;28;20495;-75
2024/01/23 00:33:59;;;;;;;1999.90;999.90;;;3.70;99.90;;;;;;5011863;28;20079;-76
2024/01/23 00:36:25;;;;;;;1999.90;999.90;;;3.70;99.90;;;;;;5011247;28;20037;-75
2024/01/23 00:38:54;;;;;;;1999.90;999.90;;;3.60;99.90;;;;;;5011874;28;20058;-77
2024/01/23 00:41:20;;;;;;;1999.90;999.90;;;3.60;99.90;;;;;;5011755;28;20503;-74
2024/01/23 00:43:45;;;;;;;1999.90;999.90;;;3.50;99.90;;;;;;5012959;28;20054;-76
2024/01/23 00:46:11;;;;;;;1999.90;999.90;;;3.50;99.90;;;;;;5011639;28;20389;-76
2024/01/23 00:48:37;;;;;;;1999.90;999.90;;;3.50;99.90;;;;;;5010228;28;20408;-75
2024/01/23 00:51:02;;;;;;;1999.90;999.90;;;3.50;99.90;;;;;;5015402;28;20042;-75
2024/01/23 00:53:28;;;;;;;1999.90;999.90;;;3.40;99.90;;;;;;4998212;28;20079;-77
2024/01/23 00:55:54;;;;;;;1999.90;999.90;;;3.30;99.90;;;;;;5011679;28;20069;-75
2024/01/23 00:58:19;;;;;;;1999.90;999.90;;;3.30;99.90;;;;;;5018850;28;20470;-75
2024/01/23 01:00:45;;;;;;;1999.90;999.90;;;3.40;99.90;;;;;;5014212;28;20404;-75
2024/01/23 01:03:11;;;;;;;1999.90;999.90;;;3.30;99.90;;;;;;4994996;28;20034;-76
2024/01/23 01:05:37;;;;;;;1999.90;999.90;;;3.10;99.90;;;;;;5009566;28;20029;-76
2024/01/23 01:08:05;;;;;;;1999.90;999.90;;;3.10;99.90;;;;;;5016638;28;20036;-76
2024/01/23 01:10:31;;;;;;;1999.90;999.90;;;3.30;99.90;;;;;;5014341;28;20037;-76
2024/01/23 01:12:56;;;;;;;1999.90;999.90;;;3.20;99.90;;;;;;5013125;28;20392;-76
2024/01/23 01:15:22;;;;;;;1999.90;999.90;;;3.20;99.90;;;;;;5013130;28;20041;-74
2024/01/23 01:17:48;;;;;;;1999.90;999.90;;;3.30;99.90;;;;;;5011501;28;20427;-74
2024/01/23 01:20:14;;;;;;;1999.90;999.90;;;3.30;99.90;;;;;;5009699;28;20396;-75
2024/01/23 01:22:40;;;;;;;1999.90;999.90;;;3.20;99.90;;;;;;5015923;28;20080;-73
2024/01/23 01:25:05;;;;;;;1999.90;999.90;;;3.30;99.90;;;;;;5010175;28;20435;-76
2024/01/23 01:27:31;;;;;;;1999.90;999.90;;;3.30;99.90;;;;;;5014709;28;20032;-74
2024/01/23 01:29:57;;;;;;;1999.90;999.90;;;3.30;99.90;;;;;;5013095;28;20042;-75
2024/01/23 01:32:22;;;;;;;1999.90;999.90;;;3.40;99.90;;;;;;5013455;28;20489;-75
2024/01/23 01:34:48;;;;;;;1999.90;999.90;;;3.50;99.90;;;;;;4999749;28;20124;-76
2024/01/23 01:37:14;;;;;;;1999.90;999.90;;;3.50;99.90;;;;;;5012805;28;20400;-76
2024/01/23 01:39:39;;;;;;;1999.90;999.90;;;3.60;99.90;;;;;;5018472;28;20147;-76
2024/01/23 01:42:05;;;;;;;1999.90;999.90;;;3.50;99.90;;;;;;5012018;28;20080;-74
2024/01/23 01:44:32;;;;;;;1999.90;999.90;;;3.50;99.90;;;;;;5020224;28;20570;-74
2024/01/23 01:46:58;;;;;;;1999.90;999.90;;;3.60;99.90;;;;;;5015517;28;20036;-76
2024/01/23 01:49:25;;;;;;;1999.90;999.90;;;3.70;99.90;;;;;;5012329;28;20113;-75
2024/01/23 01:51:51;;;;;;;1999.90;999.90;;;3.70;99.90;;;;;;4996907;28;20040;-75
2024/01/23 01:54:19;;;;;;;1999.90;999.90;;;3.70;99.90;;;;;;5008679;28;20066;-76
2024/01/23 01:56:45;;;;;;;1999.90;999.90;;;3.60;99.90;;;;;;5017309;28;20034;-74
2024/01/23 01:59:11;;;;;;;1999.90;999.90;;;3.60;99.90;;;;;;5012804;28;20025;-75
2024/01/23 02:01:37;;;;;;;1999.90;999.90;;;3.60;99.90;;;;;;5012004;28;20030;-77
2024/01/23 02:04:03;;;;;;;1999.90;999.90;;;3.60;99.90;;;;;;5009717;28;20069;-75
2024/01/23 02:06:30;;;;;;;1999.90;999.90;;;3.50;99.90;;;;;;5011865;28;20052;-74
2024/01/23 02:08:57;;;;;;;1999.90;999.90;;;3.40;99.90;;;;;;5011713;28;20032;-75
2024/01/23 02:11:22;;;;;;;1999.90;999.90;;;3.30;99.90;;;;;;5016905;28;20041;-76
2024/01/23 02:13:48;;;;;;;1999.90;999.90;;;3.40;99.90;;;;;;5010021;28;20034;-77
2024/01/23 02:16:14;;;;;;;1999.90;999.90;;;3.50;99.90;;;;;;5012074;28;20030;-74
2024/01/23 02:18:40;;;;;;;1999.90;999.90;;;3.40;99.90;;;;;;5012635;28;20037;-76
2024/01/23 02:21:07;;;;;;;1999.90;999.90;;;3.50;99.90;;;;;;4992063;28;20166;-74
2024/01/23 02:23:33;;;;;;;1999.90;999.90;;;3.30;99.90;;;;;;5007530;28;20034;-75
2024/01/23 02:25:59;;;;;;;1999.90;999.90;;;3.40;99.90;;;;;;5009644;28;20035;-75
2024/01/23 02:28:24;;;;;;;1999.90;999.90;;;3.40;99.90;;;;;;5011785;28;20078;-75
2024/01/23 02:30:50;;;;;;;1999.90;999.90;;;3.50;99.90;;;;;;5010630;28;20500;-76
2024/01/23 02:33:16;;;;;;;1999.90;999.90;;;3.50;99.90;;;;;;5015369;28;20044;-75
2024/01/23 02:35:42;;;;;;;1999.90;999.90;;;3.30;99.90;;;;;;5014635;28;20500;-74
2024/01/23 02:38:08;;;;;;;1999.90;999.90;;;3.30;99.90;;;;;;5011515;28;20415;-75
2024/01/23 02:40:34;;;;;;;1999.90;999.90;;;3.20;99.90;;;;;;5012014;28;20547;-73
2024/01/23 02:43:00;;;;;;;1999.90;999.90;;;3.20;99.90;;;;;;5018334;28;20048;-75
2024/01/23 02:45:26;;;;;;;1999.90;999.90;;;3.20;99.90;;;;;;5014059;28;20491;-74
2024/01/23 02:47:51;;;;;;;1999.90;999.90;;;3.30;99.90;;;;;;5009497;28;20460;-75
2024/01/23 02:50:17;;;;;;;1999.90;999.90;;;3.40;99.90;;;;;;5010582;28;20042;-74
2024/01/23 02:52:43;;;;;;;1999.90;999.90;;;3.40;99.90;;;;;;4997855;28;20037;-74
2024/01/23 02:55:09;;;;;;;1999.90;999.90;;;3.40;99.90;;;;;;4995235;28;20618;-76
2024/01/23 02:57:34;;;;;;;1999.90;999.90;;;3.40;99.90;;;;;;5013985;28;20033;-76
2024/01/23 03:00:00;;;;;;;1999.90;999.90;;;3.40;99.90;;;;;;5012633;28;20511;-76
2024/01/23 03:02:26;;;;;;;1999.90;999.90;;;3.50;99.90;;;;;;5014252;28;20040;-74
2024/01/23 03:04:52;;;;;;;1999.90;999.90;;;3.60;99.90;;;;;;5009208;28;21118;-75
2024/01/23 03:07:21;;;;;;;1999.90;999.90;;;3.60;99.90;;;;;;5016795;28;20056;-74
2024/01/23 03:09:47;;;;;;;1999.90;999.90;;;3.60;99.90;;;;;;5012285;28;20029;-74
2024/01/23 03:12:20;;;;;;;1999.90;999.90;;;3.60;99.90;;;;;;5014521;28;20041;-76
2024/01/23 03:14:50;;;;;;;1999.90;999.90;;;3.70;99.90;;;;;;5010654;28;20231;-75
2024/01/23 03:17:17;;;;;;;1999.90;999.90;;;3.80;99.90;;;;;;5015603;28;20034;-76
2024/01/23 03:19:43;;;;;;;1999.90;999.90;;;3.80;99.90;;;;;;5014856;28;20072;-75
2024/01/23 03:22:10;;;;;;;1999.90;999.90;;;3.70;99.90;;;;;;5011357;28;20369;-74
2024/01/23 03:24:39;;;;;;;1999.90;999.90;;;3.70;99.90;;;;;;5013393;28;20033;-74
2024/01/23 03:27:06;;;;;;;1999.90;999.90;;;3.60;99.90;;;;;;5013083;28;20082;-74
2024/01/23 03:29:45;;;;;;;1999.90;999.90;;;3.70;99.90;;;;;;5011853;28;20040;-75
2024/01/23 03:32:11;;;;;;;1999.90;999.90;;;3.70;99.90;;;;;;5013017;28;20080;-75
2024/01/23 03:34:39;;;;;;;1999.90;999.90;;;3.70;99.90;;;;;;5012526;28;20441;-76
2024/01/23 03:37:05;;;;;;;1999.90;999.90;;;3.70;99.90;;;;;;5008687;28;20564;-76
2024/01/23 03:39:31;;;;;;;1999.90;999.90;;;3.60;99.90;;;;;;5014518;28;20099;-74
2024/01/23 03:41:57;;;;;;;1999.90;999.90;;;3.50;99.90;;;;;;5006578;28;20489;-76
2024/01/23 03:44:24;;;;;;;1999.90;999.90;;;3.40;99.90;;;;;;5023833;28;20133;-74
2024/01/23 03:46:50;;;;;;;1999.90;999.90;;;3.50;99.90;;;;;;5011329;28;20038;-75
2024/01/23 03:49:16;;;;;;;1999.90;999.90;;;3.50;99.90;;;;;;5011274;28;20040;-75
2024/01/23 03:51:42;;;;;;;1999.90;999.90;;;3.60;99.90;;;;;;5011409;28;20034;-74
2024/01/23 03:54:08;;;;;;;1999.90;999.90;;;3.60;99.90;;;;;;5009727;28;20031;-75
2024/01/23 03:56:34;;;;;;;1999.90;999.90;;;3.60;99.90;;;;;;5007721;28;20030;-75
2024/01/23 03:58:59;;;;;;;1999.90;999.90;;;3.60;99.90;;;;;;5023789;28;20060;-75
2024/01/23 04:01:25;;;;;;;1999.90;999.90;;;3.70;99.90;;;;;;5008976;28;20033;-74
2024/01/23 04:03:51;;;;;;;1999.90;999.90;;;3.70;99.90;;;;;;5015701;28;20026;-76
2024/01/23 04:06:16;;;;;;;1999.90;999.90;;;3.70;99.90;;;;;;5011314;28;20092;-74
2024/01/23 04:08:43;;;;;;;1999.90;999.90;;;3.60;99.90;;;;;;5012947;28;20053;-77
2024/01/23 04:11:08;;;;;;;1999.90;999.90;;;3.50;99.90;;;;;;4990786;28;20034;-74
2024/01/23 04:13:35;;;;;;;1999.90;999.90;;;3.40;99.90;;;;;;5012718;28;20036;-74
2024/01/23 04:16:00;;;;;;;1999.90;999.90;;;3.30;99.90;;;;;;5013489;28;20033;-74
2024/01/23 04:18:29;;;;;;;1999.90;999.90;;;3.40;99.90;;;;;;5010025;28;20060;-76
2024/01/23 04:20:54;;;;;;;1999.90;999.90;;;3.30;99.90;;;;;;5004869;28;20131;-76
2024/01/23 04:23:20;;;;;;;1999.90;999.90;;;3.20;99.90;;;;;;5016114;28;20750;-75
2024/01/23 04:25:46;;;;;;;1999.90;999.90;;;3.20;99.90;;;;;;5013586;28;20044;-75
2024/01/23 04:28:11;;;;;;;1999.90;999.90;;;3.20;99.90;;;;;;5008621;28;20139;-75
2024/01/23 04:30:38;;;;;;;1999.90;999.90;;;3.30;99.90;;;;;;5010547;28;20791;-75
2024/01/23 04:33:04;;;;;;;1999.90;999.90;;;3.20;99.90;;;;;;5011513;28;20060;-77
2024/01/23 04:35:29;;;;;;;1999.90;999.90;;;3.10;99.90;;;;;;4990158;28;20053;-74
2024/01/23 04:37:55;;;;;;;1999.90;999.90;;;3.00;99.90;;;;;;5012827;28;20031;-74
2024/01/23 04:40:21;;;;;;;1999.90;999.90;;;3.00;99.90;;;;;;5012630;28;20089;-74
2024/01/23 04:42:47;;;;;;;1999.90;999.90;;;3.00;99.90;;;;;;5010375;28;20117;-75
2024/01/23 04:45:13;;;;;;;1999.90;999.90;;;3.10;99.90;;;;;;5009636;28;20128;-76
2024/01/23 04:47:39;;;;;;;1999.90;999.90;;;3.20;99.90;;;;;;5012663;28;20030;-75
2024/01/23 04:50:05;;;;;;;1999.90;999.90;;;3.30;99.90;;;;;;5010949;28;20061;-74
2024/01/23 04:52:31;;;;;;;1999.90;999.90;;;3.20;99.90;;;;;;5020015;28;20049;-77
2024/01/23 04:54:56;;;;;;;1999.90;999.90;;;3.20;99.90;;;;;;5007596;28;20030;-74
2024/01/23 04:57:22;;;;;;;1999.90;999.90;;;3.10;99.90;;;;;;5013976;28;20511;-75
2024/01/23 04:59:48;;;;;;;1999.90;999.90;;;3.00;99.90;;;;;;5013342;28;20664;-77
2024/01/23 05:02:14;;;;;;;1999.90;999.90;;;3.20;99.90;;;;;;5009993;28;20441;-75
2024/01/23 05:04:40;;;;;;;1999.90;999.90;;;3.10;99.90;;;;;;5011920;28;20033;-75
2024/01/23 05:07:05;;;;;;;1999.90;999.90;;;3.00;99.70;;;;;;5009658;28;20037;-77
2024/01/23 05:09:31;;;;;;;1999.90;999.90;;;3.00;99.70;;;;;;5009826;28;20091;-75
2024/01/23 05:11:58;;;;;;;1999.90;999.90;;;3.00;99.60;;;;;;5011337;28;20092;-77
2024/01/23 05:14:24;;;;;;;1999.90;999.90;;;2.90;99.40;;;;;;5007290;28;20055;-76
2024/01/23 05:16:49;;;;;;;1999.90;999.90;;;2.80;98.90;;;;;;5012314;28;20548;-76
2024/01/23 05:19:15;;;;;;;1999.90;999.90;;;2.80;99.50;;;;;;5012280;28;20053;-76
2024/01/23 05:21:41;;;;;;;1999.90;999.90;;;2.70;99.50;;;;;;5008398;28;20057;-82
2024/01/23 05:24:07;;;;;;;1999.90;999.90;;;2.80;99.70;;;;;;5009668;28;20029;-78
2024/01/23 05:26:32;;;;;;;1999.90;999.90;;;2.80;99.50;;;;;;5010016;28;20455;-78
2024/01/23 05:28:58;;;;;;;1999.90;999.90;;;2.70;99.10;;;;;;5015918;28;20030;-80
2024/01/23 05:31:23;;;;;;;1999.90;999.90;;;2.60;99.50;;;;;;5012060;28;20038;-81
2024/01/23 05:33:49;;;;;;;1999.90;999.90;;;2.70;99.80;;;;;;5013638;28;20030;-79
2024/01/23 05:36:15;;;;;;;1999.90;999.90;;;2.70;99.60;;;;;;5023184;28;20484;-79
2024/01/23 05:38:40;;;;;;;1999.90;999.90;;;2.70;99.70;;;;;;5008905;28;20491;-77
2024/01/23 05:41:06;;;;;;;1999.90;999.90;;;2.70;99.70;;;;;;5012174;28;20689;-75
2024/01/23 05:43:32;;;;;;;1999.90;999.90;;;2.80;99.60;;;;;;5016363;28;20037;-79
2024/01/23 05:45:57;;;;;;;1999.90;999.90;;;2.90;99.20;;;;;;5011705;28;20459;-75
2024/01/23 05:48:23;;;;;;;1999.90;999.90;;;2.90;99.10;;;;;;5010778;28;20034;-78
2024/01/23 05:50:49;;;;;;;1999.90;999.90;;;3.00;99.00;;;;;;5009415;28;20064;-77
2024/01/23 05:53:15;;;;;;;1999.90;999.90;;;3.00;98.90;;;;;;5013864;28;20030;-78
2024/01/23 05:55:40;;;;;;;1999.90;999.90;;;3.00;98.80;;;;;;5011933;28;20149;-77
2024/01/23 05:58:06;;;;;;;1999.90;999.90;;;3.00;98.60;;;;;;5011839;28;20087;-76
2024/01/23 06:00:32;;;;;;;1999.90;999.90;;;3.00;98.80;;;;;;5012609;28;20457;-77
2024/01/23 06:02:58;;;;;;;1999.90;999.90;;;3.00;98.80;;;;;;5015349;28;20041;-78
2024/01/23 06:05:24;;;;;;;1999.90;999.90;;;3.00;98.90;;;;;;5012155;28;20057;-78
2024/01/23 06:07:50;;;;;;;1999.90;999.90;;;2.90;99.10;;;;;;5008695;28;20092;-76
2024/01/23 06:10:17;;;;;;;1999.90;999.90;;;2.90;99.20;;;;;;5008183;28;20100;-76
2024/01/23 06:12:43;;;;;;;1999.90;999.90;;;3.00;99.60;;;;;;5011396;28;20022;-77
2024/01/23 06:15:09;;;;;;;1999.90;999.90;;;3.10;99.80;;;;;;5009913;28;20115;-76
2024/01/23 06:17:35;;;;;;;1999.90;999.90;;;3.00;99.90;;;;;;5012324;28;20046;-77
2024/01/23 06:20:04;;;;;;;1999.90;999.90;;;3.00;99.90;;;;;;4998207;28;20054;-76
2024/01/23 06:22:30;;;;;;;1999.90;999.90;;;2.90;99.90;;;;;;5016869;28;20025;-77
2024/01/23 06:25:04;;;;;;;1999.90;999.90;;;2.80;99.90;;;;;;5001726;28;20041;-76
2024/01/23 06:27:30;;;;;;;1999.90;999.90;;;2.80;99.90;;;;;;5011289;28;20426;-77
2024/01/23 06:29:56;;;;;;;1999.90;999.90;;;2.80;99.90;;;;;;5016160;28;20037;-76
2024/01/23 06:32:23;;;;;;;1999.90;999.90;;;2.80;99.90;;;;;;5012221;28;20476;-76
2024/01/23 06:34:49;;;;;;;1999.90;999.90;;;2.90;99.90;;;;;;5015658;28;20077;-79
2024/01/23 06:37:15;;;;;;;1999.90;999.90;;;2.90;99.90;;;;;;5010202;28;20042;-77
2024/01/23 06:39:41;;;;;;;1999.90;999.90;;;2.80;99.90;;;;;;5012084;28;20137;-76
2024/01/23 06:42:06;;;;;;;1999.90;999.90;;;2.70;99.90;;;;;;5015828;28;20037;-77
2024/01/23 06:44:32;;;;;;;1999.90;999.90;;;2.80;99.90;;;;;;5018227;28;20095;-76
2024/01/23 06:46:57;;;;;;;1999.90;999.90;;;2.60;99.90;;;;;;5017392;28;20116;-75
2024/01/23 06:49:23;;;;;;;1999.90;999.90;;;2.60;99.90;;;;;;5013458;28;20030;-75
2024/01/23 06:51:49;;;;;;;1999.90;999.90;;;2.70;99.90;;;;;;5011179;28;20037;-78
2024/01/23 06:54:15;;;;;;;1999.90;999.90;;;2.60;99.90;;;;;;5010106;28;20038;-78
2024/01/23 06:56:41;;;;;;;1999.90;999.90;;;2.70;99.90;;;;;;5014961;28;20063;-81
2024/01/23 06:59:07;;;;;;;1999.90;999.90;;;2.70;99.90;;;;;;5021249;28;20684;-77
2024/01/23 07:01:33;;;;;;;1999.90;999.90;;;2.50;99.90;;;;;;5010783;28;20041;-77
2024/01/23 07:03:59;;;;;;;1999.90;999.90;;;2.60;99.90;;;;;;5014887;28;20029;-77
2024/01/23 07:06:24;;;;;;;1999.90;999.90;;;2.60;99.90;;;;;;5009654;28;20116;-75
2024/01/23 07:08:52;;;;;;;1999.90;999.90;;;2.60;99.90;;;;;;5011273;28;20519;-76
2024/01/23 07:11:17;;;;;;;1999.90;999.90;;;2.60;99.90;;;;;;4995744;28;20037;-75
2024/01/23 07:13:43;;;;;;;1999.90;999.90;;;2.60;99.90;;;;;;5008909;28;20047;-75
2024/01/23 07:16:09;;;;;;;1999.90;999.90;;;2.50;99.90;;;;;;5008398;28;20025;-76
2024/01/23 07:18:35;;;;;;;1999.90;999.90;;;2.50;99.90;;;;;;5007677;28;20034;-75
2024/01/23 07:21:00;;;;;;;1999.90;999.90;;;2.50;99.90;;;;;;5011624;28;20563;-78
2024/01/23 07:23:26;;;;;;;1999.90;999.90;;;2.50;99.90;;;;;;5008814;28;20034;-77
2024/01/23 07:25:52;;;;;;;1999.90;999.90;;;2.50;99.90;;;;;;5004817;28;20045;-78
2024/01/23 07:28:17;;;;;;;1999.90;999.90;;;2.60;99.90;;;;;;5004271;28;20061;-77
2024/01/23 07:30:43;;;;;;;1999.90;999.90;;;2.60;99.90;;;;;;5004850;28;20069;-78
2024/01/23 07:33:09;;;;;;;1999.90;999.90;;;2.50;99.90;;;;;;5014233;28;20040;-76
2024/01/23 07:35:35;;;;;;;1999.90;999.90;;;2.50;99.90;;;;;;5012630;28;20550;-80
2024/01/23 07:38:01;;;;;;;1999.90;999.90;;;2.60;99.90;;;;;;5012348;28;20037;-78
2024/01/23 07:40:26;;;;;;;1999.90;999.90;;;2.60;99.90;;;;;;5008245;28;20026;-78
2024/01/23 07:42:52;;;;;;;1999.90;999.90;;;2.60;99.70;;;;;;5012796;28;20033;-78
2024/01/23 07:45:19;;;;;;;1999.90;999.90;;;2.80;99.60;;;;;;5012937;28;20548;-78
2024/01/23 07:47:45;;;;;;;1999.90;999.90;;;2.80;99.40;;;;;;5014536;28;20029;-78
2024/01/23 07:50:12;;;;;;;1999.90;999.90;;;2.90;98.90;;;;;;5009616;28;20037;-80
2024/01/23 07:52:37;;;;;;;1999.90;999.90;;;3.00;98.40;;;;;;4995296;28;20034;-81
2024/01/23 07:55:03;;;;;;;1999.90;999.90;;;3.00;98.30;;;;;;5012588;28;20503;-77
2024/01/23 07:57:29;;;;;;;1999.90;999.90;;;3.10;98.00;;;;;;5014254;28;20492;-80
2024/01/23 07:59:55;;;;;;;1999.90;999.90;;;3.10;98.00;;;;;;5011732;28;20037;-77
2024/01/23 08:02:20;;;;;;;1999.90;999.90;;;3.20;98.10;;;;;;4995489;28;20041;-78
2024/01/23 08:04:46;;;;;;;1999.90;999.90;;;3.30;98.20;;;;;;4994188;28;20042;-77
2024/01/23 08:07:12;;;;;;;1999.90;999.90;;;3.20;98.30;;;;;;4993200;28;20053;-78
2024/01/23 08:09:38;;;;;;;1999.90;999.90;;;3.20;98.80;;;;;;5007633;28;20042;-78
2024/01/23 08:12:06;;;;;;;1999.90;999.90;;;3.20;99.00;;;;;;5011975;28;20034;-80
2024/01/23 08:14:31;;;;;;;1999.90;999.90;;;3.20;99.80;;;;;;5009076;28;20072;-78
2024/01/23 08:16:57;;;;;;;1999.90;999.90;;;3.10;99.90;;;;;;5009635;28;20722;-81
2024/01/23 08:19:23;;;;;;;1999.90;999.90;;;3.10;99.90;;;;;;5011015;28;20046;-79
2024/01/23 08:21:49;;;;;;;1999.90;999.90;;;3.10;99.90;;;;;;5010012;28;20030;-79
2024/01/23 08:24:15;;;;;;;1999.90;999.90;;;3.10;99.90;;;;;;5010218;28;20030;-77
2024/01/23 08:26:41;;;;;;;1999.90;999.90;;;3.00;99.90;;;;;;5011812;28;20029;-77
2024/01/23 08:29:07;;;;;;;1999.90;999.90;;;2.90;99.90;;;;;;4992954;28;20022;-77
2024/01/23 08:31:33;;;;;;;1999.90;999.90;;;3.60;99.90;;;;;;5010111;28;20049;-77
2024/01/23 08:33:59;;;;;;;1999.90;999.90;;;4.30;99.90;;;;;;5010484;28;20064;-77
2024/01/23 08:36:25;;;;;;;1999.90;999.90;;;4.40;99.90;;;;;;5005548;28;20034;-78
2024/01/23 08:38:50;;;;;;;1999.90;999.90;;;4.50;99.90;;;;;;5012065;28;20397;-79
2024/01/23 08:41:16;;;;;;;1999.90;999.90;;;4.50;99.90;;;;;;5007179;28;20045;-76
2024/01/23 08:43:42;;;;;;;1999.90;999.90;;;4.70;99.90;;;;;;5007113;28;20105;-77
2024/01/23 08:46:07;;;;;;;1999.90;999.90;;;4.80;99.90;;;;;;5006914;28;20382;-77
2024/01/23 08:48:33;;;;;;;1999.90;999.90;;;5.10;99.90;;;;;;5009574;28;20028;-76
2024/01/23 08:50:59;;;;;;;1999.90;999.90;;;5.10;99.90;;;;;;5013994;28;20044;-78
2024/01/23 08:53:24;;;;;;;1999.90;999.90;;;5.10;99.90;;;;;;5015912;28;20033;-77
2024/01/23 08:55:50;;;;;;;1999.90;999.90;;;5.10;99.90;;;;;;4992274;28;20069;-78
2024/01/23 08:58:19;;;;;;;1999.90;999.90;;;5.10;99.90;;;;;;5013550;28;20033;-77
2024/01/23 09:00:45;;;;;;;1999.90;999.90;;;5.00;99.90;;;;;;5009752;28;20046;-77
2024/01/23 09:03:11;;;;;;;1999.90;999.90;;;5.10;99.90;;;;;;5011358;28;20026;-78
2024/01/23 09:05:36;;;;;;;1999.90;999.90;;;5.10;99.90;;;;;;5015643;28;20029;-78
2024/01/23 09:08:03;;;;;;;1999.90;999.90;;;5.00;99.90;;;;;;5018185;28;20634;-77
2024/01/23 09:10:29;;;;;;;1999.90;999.90;;;4.90;99.90;;;;;;5017865;28;20033;-78
2024/01/23 09:12:55;;;;;;;1999.90;999.90;;;4.90;99.90;;;;;;4998554;28;20431;-76
2024/01/23 09:15:20;;;;;;;1999.90;999.90;;;4.90;99.90;;;;;;5013296;28;20073;-74
2024/01/23 09:17:46;;;;;;;1999.90;999.90;;;4.90;99.90;;;;;;5010377;28;20955;-80
2024/01/23 09:20:12;;;;;;;1999.90;999.90;;;5.00;99.90;;;;;;5014719;28;20042;-78
2024/01/23 09:22:39;;;;;;;1999.90;999.90;;;5.00;99.90;;;;;;4996468;28;20033;-77
2024/01/23 09:25:05;;;;;;;1999.90;999.90;;;5.10;99.90;;;;;;5019236;28;20030;-77
2024/01/23 09:27:31;;;;;;;1999.90;999.90;;;5.10;99.90;;;;;;5013567;28;20030;-80
2024/01/23 09:29:57;;;;;;;1999.90;999.90;;;5.10;99.90;;;;;;5013487;28;20041;-80
2024/01/23 09:32:23;;;;;;;1999.90;999.90;;;5.10;99.90;;;;;;5022510;28;20091;-83
2024/01/23 09:34:48;;;;;;;1999.90;999.90;;;5.10;99.90;;;;;;5014223;28;20061;-78
2024/01/23 09:37:14;;;;;;;1999.90;999.90;;;5.10;99.90;;;;;;5007952;28;20119;-83
2024/01/23 09:39:40;;;;;;;1999.90;999.90;;;5.30;99.90;;;;;;5007893;28;20112;-80
2024/01/23 09:42:09;;;;;;;1999.90;999.90;;;5.40;99.90;;;;;;5013733;28;20061;-80
2024/01/23 09:44:36;;;;;;;1999.90;999.90;;;5.50;99.90;;;;;;4995463;28;20037;-80
2024/01/23 09:47:03;;;;;;;1999.90;999.90;;;5.50;99.90;;;;;;5030266;28;20579;-79
2024/01/23 09:49:30;;;;;;;1999.90;999.90;;;5.50;99.90;;;;;;5016497;28;20026;-79
2024/01/23 09:52:03;;;;;;;1999.90;999.90;;;5.60;99.90;;;;;;5010659;28;20049;-77
2024/01/23 09:54:31;;;;;;;1999.90;999.90;;;5.60;99.90;;;;;;5014216;28;20105;-80
2024/01/23 09:56:57;;;;;;;1999.90;999.90;;;5.70;99.90;;;;;;5018303;28;20030;-79
2024/01/23 09:59:23;;;;;;;1999.90;999.90;;;5.90;99.90;;;;;;5011554;28;20112;-78
2024/01/23 10:01:49;;;;;;;1999.90;999.90;;;5.90;99.90;;;;;;5012541;28;20941;-80
2024/01/23 10:04:17;;;;;;;1999.90;999.90;;;6.00;99.90;;;;;;5006770;28;20511;-77
2024/01/23 10:06:43;;;;;;;1999.90;999.90;;;6.10;99.90;;;;;;5015106;28;20029;-78
2024/01/23 10:09:09;;;;;;;1999.90;999.90;;;6.00;99.90;;;;;;5023439;28;20121;-79
2024/01/23 10:11:35;;;;;;;1999.90;999.90;;;6.00;99.90;;;;;;5012142;28;20022;-81
2024/01/23 10:14:02;;;;;;;1999.90;999.90;;;6.00;99.90;;;;;;5010039;28;20602;-82
2024/01/23 10:16:27;;;;;;;1999.90;999.90;;;6.10;99.90;;;;;;5021768;28;20056;-79
2024/01/23 10:18:53;;;;;;;1999.90;999.90;;;6.10;99.90;;;;;;5012734;28;20117;-81
2024/01/23 10:21:23;;;;;;;1999.90;999.90;;;6.00;99.90;;;;;;4998839;28;20030;-78
2024/01/23 10:23:50;;;;;;;1999.90;999.90;;;6.10;99.90;;;;;;5014528;28;20027;-81
2024/01/23 10:26:20;;;;;;;1999.90;999.90;;;6.10;99.90;;;;;;5012322;28;20025;-76
2024/01/23 10:28:49;;;;;;;1999.90;999.90;;;6.20;99.90;;;;;;5010325;28;20029;-77
2024/01/23 10:31:16;;;;;;;1999.90;999.90;;;6.00;99.90;;;;;;5008843;28;20769;-77
2024/01/23 10:33:42;;;;;;;1999.90;999.90;;;6.10;99.90;;;;;;5011299;28;20507;-77
2024/01/23 10:36:09;;;;;;;1999.90;999.90;;;6.10;99.90;;;;;;4998653;28;20615;-77
2024/01/23 10:38:35;;;;;;;1999.90;999.90;;;6.10;99.90;;;;;;5009429;28;20041;-78
2024/01/23 10:41:03;;;;;;;1999.90;999.90;;;6.10;99.90;;;;;;5011686;28;20045;-78
2024/01/23 10:43:30;;;;;;;1999.90;999.90;;;6.10;99.90;;;;;;5012234;28;20022;-77
2024/01/23 10:45:58;;;;;;;1999.90;999.90;;;6.10;99.90;;;;;;4986228;28;20084;-80
2024/01/23 10:48:25;;;;;;;1999.90;999.90;;;6.20;99.90;;;;;;5029770;28;20045;-77
2024/01/23 10:51:00;;;;;;;1999.90;999.90;;;6.10;99.90;;;;;;5013918;28;20030;-82
2024/01/23 10:53:34;;;;;;;1999.90;999.90;;;6.10;99.90;;;;;;5013523;28;20026;-81
2024/01/23 10:56:01;;;;;;;1999.90;999.90;;;6.20;99.90;;;;;;5010508;28;20489;-78
2024/01/23 10:58:39;;;;;;;1999.90;999.90;;;6.10;99.90;;;;;;5013300;28;20038;-82
2024/01/23 11:01:09;;;;;;;1999.90;999.90;;;6.10;99.90;;;;;;5008432;28;20080;-78
2024/01/23 11:03:36;;;;;;;1999.90;999.90;;;6.10;99.90;;;;;;5014628;28;20026;-83
2024/01/23 11:06:17;;;;;;;1999.90;999.90;;;6.00;99.90;;;;;;5002615;28;20049;-77
2024/01/23 11:08:49;;;;;;;1999.90;999.90;;;6.00;99.90;;;;;;5013076;28;20164;-78
2024/01/23 11:11:31;;;;;;;1999.90;999.90;;;6.00;99.90;;;;;;5017748;28;20071;-79
2024/01/23 11:14:04;;;;;;;1999.90;999.90;;;5.90;99.90;;;;;;4998931;28;20041;-77
2024/01/23 11:16:30;;;;;;;1999.90;999.90;;;5.90;99.90;;;;;;5004665;28;20030;-79
2024/01/23 11:18:56;;;;;;;1999.90;999.90;;;5.90;99.90;;;;;;5013237;28;20051;-81
2024/01/23 11:21:24;;;;;;;1999.90;999.90;;;5.70;99.90;;;;;;5007617;28;20069;-77
2024/01/23 11:24:01;;;;;;;1999.90;999.90;;;5.40;99.90;;;;;;5005300;28;20121;-80
2024/01/23 11:26:27;;;;;;;1999.90;999.90;;;5.50;99.90;;;;;;5018956;28;20087;-79
2024/01/23 11:28:54;;;;;;;1999.90;999.90;;;5.40;99.90;;;;;;5008285;28;20057;-81
2024/01/23 11:31:22;;;;;;;1999.90;999.90;;;5.10;99.90;;;;;;5011655;28;20034;-80
2024/01/23 11:33:51;;;;;;;1999.90;999.90;;;5.10;99.90;;;;;;5009306;28;20061;-78
2024/01/23 11:36:24;;;;;;;1999.90;999.90;;;5.20;99.90;;;;;;5014231;28;20034;-78
2024/01/23 11:38:52;;;;;;;1999.90;999.90;;;5.30;99.90;;;;;;5020071;28;20133;-79
2024/01/23 11:41:23;;;;;;;1999.90;999.90;;;5.30;99.90;;;;;;5013350;28;20041;-78
2024/01/23 11:43:49;;;;;;;1999.90;999.90;;;5.40;99.90;;;;;;5009916;28;20036;-76
2024/01/23 11:46:18;;;;;;;1999.90;999.90;;;5.30;99.90;;;;;;5016802;28;20034;-78
2024/01/23 11:48:44;;;;;;;1999.90;999.90;;;5.40;99.90;;;;;;5005046;28;20101;-80
2024/01/23 11:51:14;;;;;;;1999.90;999.90;;;5.40;99.90;;;;;;5012995;28;20492;-78
2024/01/23 11:53:44;;;;;;;1999.90;999.90;;;5.50;99.90;;;;;;5016388;28;20030;-76
2024/01/23 11:56:10;;;;;;;1999.90;999.90;;;5.60;99.90;;;;;;5008022;28;20042;-80
2024/01/23 11:58:36;;;;;;;1999.90;999.90;;;5.60;99.90;;;;;;5009271;28;20034;-79
2024/01/23 12:01:04;;;;;;;1999.90;999.90;;;5.70;99.90;;;;;;5008652;28;20032;-78
2024/01/23 12:03:30;;;;;;;1999.90;999.90;;;5.60;99.90;;;;;;5008793;28;20030;-77
2024/01/23 12:05:56;;;;;;;1999.90;999.90;;;5.40;99.90;;;;;;5008352;28;20030;-78